首页
METAR-TAF:

METAR-TAF

机场 :

坎伯蘭, 马里兰州, 美国

纬度: 39-36-56N, 经度: 078-45-39W, 海拔: 236米

当前天气观测

该预报发布于31分钟前的15:30 UTC
风速3节,风向
温度 -1°C
湿度 86%
气压 1027 hPa
能見度: 11.3公里
散云层高于1500英尺
散云层高于2000英尺
阴天层高于2600英尺
未知, 轻雾

METAR: KCBE 131530Z AUTO 35003KT 7SM UP BR SCT015 SCT020 OVC026 M01/M03 A3033 RMK AO2 T10121026

时间: 11:01 (16:01 UTC)


TAF: 丢失

超过4000个机场的气象观测和天气预报(METAR&TAF报告)。

可查询的气象台以黄色和红色小点在地图上表示。

将鼠标移到小点上方,可查看气象台名称。

然后点击查看天气观测和预报。

如需切换地图:点击带黑十字的绿色按钮放大地图;点击带横线的绿色按钮缩小地图;或者点击绿色箭头查看邻近地区的地图。


METAR-TAF: